Time;durP1;ratioP1;P1;durP2;ratioP2;P2;SDS_P1;SDS_P2;PMS_P1;PMS_P2;Temp;Humidity;BMP_temperature;BMP_pressure;BME280_temperature;BME280_humidity;BME280_pressure;Samples;Min_cycle;Max_cycle;Signal;HPM_P1;HPM_P2
2022/08/17 00:02:14;;;;;;;;;;;;;;;29.46;37.06;93646.88;5041605;28;7215;-62
2022/08/17 00:04:42;;;;;;;;;;;;;;;29.45;37.32;93650.97;5042204;28;8871;-63
2022/08/17 00:07:09;;;;;;;;;;;;;;;29.42;36.58;93646.53;5039872;28;7617;-63
2022/08/17 00:09:38;;;;;;;;;;;;;;;29.41;37.53;93647.81;5041022;28;6986;-63
2022/08/17 00:12:05;;;;;;;;;;;;;;;29.42;37.25;93647.28;5047177;28;7026;-63
2022/08/17 00:14:38;;;;;;;;;;;;;;;29.42;37.32;93643.75;5046581;28;9062;-62
2022/08/17 00:17:05;;;;;;;;;;;;;;;29.42;37.46;93638.22;5044959;28;7257;-63
2022/08/17 00:19:33;;;;;;;;;;;;;;;29.43;36.83;93642.44;5064205;28;8027;-63
2022/08/17 00:22:05;;;;;;;;;;;;;;;29.42;37.74;93641.72;5043578;28;7231;-62
2022/08/17 00:24:32;;;;;;;;;;;;;;;29.39;37.11;93637.28;5046600;28;8481;-63
2022/08/17 00:26:58;;;;;;;;;;;;;;;29.41;37.56;93647.81;5044646;28;7222;-62
2022/08/17 00:29:31;;;;;;;;;;;;;;;29.41;37.72;93643.00;5044534;28;7020;-62
2022/08/17 00:32:05;;;;;;;;;;;;;;;29.41;37.74;93642.25;5046268;28;9137;-63
2022/08/17 00:34:38;;;;;;;;;;;;;;;29.39;37.42;93647.63;5046368;28;8724;-63
2022/08/17 00:37:23;;;;;;;;;;;;;;;29.36;37.36;93645.97;5047527;28;7421;-63
2022/08/17 00:39:49;;;;;;;;;;;;;;;29.39;37.61;93644.84;5043721;28;7645;-62
2022/08/17 00:42:18;;;;;;;;;;;;;;;29.39;37.31;93631.75;5044216;28;9100;-62
2022/08/17 00:44:45;;;;;;;;;;;;;;;29.37;37.10;93625.28;5043524;28;7120;-62
2022/08/17 00:47:13;;;;;;;;;;;;;;;29.38;37.10;93627.50;5062026;28;7715;-63
2022/08/17 00:49:40;;;;;;;;;;;;;;;29.36;37.70;93632.13;5037321;28;8831;-63
2022/08/17 00:52:15;;;;;;;;;;;;;;;29.35;37.63;93628.59;5042872;28;7008;-63
2022/08/17 00:55:01;;;;;;;;;;;;;;;29.36;37.05;93624.53;5063006;28;7166;-62
2022/08/17 00:58:04;;;;;;;;;;;;;;;29.37;36.83;93628.78;5046639;28;6851;-63
2022/08/17 01:00:40;;;;;;;;;;;;;;;29.38;37.46;93627.50;4970203;28;7842;-63
2022/08/17 01:03:12;;;;;;;;;;;;;;;29.40;37.90;93629.72;4953911;28;9190;-63
2022/08/17 01:05:41;;;;;;;;;;;;;;;29.39;37.10;93625.47;4966786;28;7393;-63
2022/08/17 01:08:15;;;;;;;;;;;;;;;29.37;37.83;93631.56;4971621;28;9592;-63
2022/08/17 01:10:48;;;;;;;;;;;;;;;29.35;37.87;93633.41;4951877;28;9046;-63
2022/08/17 01:13:44;;;;;;;;;;;;;;;29.37;37.32;93641.91;4966349;28;7175;-63
2022/08/17 01:16:26;;;;;;;;;;;;;;;29.38;37.55;93640.63;4950772;28;7103;-63
2022/08/17 01:18:58;;;;;;;;;;;;;;;29.43;37.43;93650.75;4950151;28;7379;-63
2022/08/17 01:22:00;;;;;;;;;;;;;;;29.44;37.01;93641.91;4945686;28;9124;-63
2022/08/17 01:24:46;;;;;;;;;;;;;;;29.48;36.75;93641.53;4951733;28;7172;-63
2022/08/17 01:27:31;;;;;;;;;;;;;;;29.51;37.31;93651.50;4936437;28;7206;-63
2022/08/17 01:30:13;;;;;;;;;;;;;;;29.49;37.47;93660.34;4951657;28;7336;-63
2022/08/17 01:32:44;;;;;;;;;;;;;;;29.49;37.62;93662.41;4955358;28;9211;-62
2022/08/17 01:35:13;;;;;;;;;;;;;;;29.49;36.77;93665.19;5036831;28;9118;-62
2022/08/17 01:37:41;;;;;;;;;;;;;;;29.46;37.27;93671.81;5043716;28;9050;-62
2022/08/17 01:41:00;;;;;;;;;;;;;;;29.46;37.29;93694.72;5043854;28;7261;-62
2022/08/17 01:43:50;;;;;;;;;;;;;;;29.49;37.12;93709.53;4948145;28;7062;-62
2022/08/17 01:46:42;;;;;;;;;;;;;;;29.50;36.59;93705.44;4961998;28;7220;-62
2022/08/17 01:49:22;;;;;;;;;;;;;;;29.50;36.95;93705.44;4949695;28;7124;-63
2022/08/17 01:52:20;;;;;;;;;;;;;;;29.50;37.69;93713.75;4946997;28;7035;-62
2022/08/17 01:54:50;;;;;;;;;;;;;;;29.47;36.88;93715.59;4948089;28;9591;-63
2022/08/17 01:57:25;;;;;;;;;;;;;;;29.44;37.73;93741.66;4958107;28;8805;-62
2022/08/17 01:59:54;;;;;;;;;;;;;;;29.43;37.51;93736.66;4955110;28;7032;-63
2022/08/17 02:02:20;;;;;;;;;;;;;;;29.43;37.06;93736.66;4945392;28;7238;-63
2022/08/17 02:04:46;;;;;;;;;;;;;;;29.38;37.26;93729.25;4963285;28;7284;-63
2022/08/17 02:07:15;;;;;;;;;;;;;;;29.41;37.03;93734.44;4943836;28;7250;-63
2022/08/17 02:09:43;;;;;;;;;;;;;;;29.44;37.17;93746.44;4951303;28;7419;-62
2022/08/17 02:12:14;;;;;;;;;;;;;;;29.45;37.61;93736.84;4946216;28;8725;-63
2022/08/17 02:14:40;;;;;;;;;;;;;;;29.42;36.50;93738.69;4946542;28;9156;-63
2022/08/17 02:17:09;;;;;;;;;;;;;;;29.46;37.06;93757.72;4936696;28;8040;-63
2022/08/17 02:19:35;;;;;;;;;;;;;;;29.45;37.17;93759.75;5011236;28;7242;-62
2022/08/17 02:22:06;;;;;;;;;;;;;;;29.47;36.92;93761.97;5036915;28;7033;-62
2022/08/17 02:24:37;;;;;;;;;;;;;;;29.48;37.38;93761.41;5045484;28;6993;-63
2022/08/17 02:27:06;;;;;;;;;;;;;;;29.48;37.26;93777.31;5036468;28;9069;-62
2022/08/17 02:29:32;;;;;;;;;;;;;;;29.48;36.99;93771.75;5056029;28;7223;-62
2022/08/17 02:32:00;;;;;;;;;;;;;;;29.47;37.41;93773.06;5053452;28;7238;-63
2022/08/17 02:34:31;;;;;;;;;;;;;;;29.45;36.87;93784.69;5037433;28;8283;-63
2022/08/17 02:36:57;;;;;;;;;;;;;;;29.46;36.46;93794.47;5036844;28;9061;-62
2022/08/17 02:39:23;;;;;;;;;;;;;;;29.46;36.84;93794.47;5054432;28;9494;-62
2022/08/17 02:42:00;;;;;;;;;;;;;;;29.46;37.06;93799.28;5053651;28;6984;-63
2022/08/17 02:44:26;;;;;;;;;;;;;;;29.47;37.39;93806.31;5039494;28;9014;-63
2022/08/17 02:46:52;;;;;;;;;;;;;;;29.44;36.82;93797.06;5034586;28;9120;-62
2022/08/17 02:49:18;;;;;;;;;;;;;;;29.47;36.68;93795.22;5037387;28;6975;-62
2022/08/17 02:51:48;;;;;;;;;;;;;;;29.46;36.67;93793.75;5055435;28;7124;-62
2022/08/17 02:54:15;;;;;;;;;;;;;;;29.47;37.20;93818.13;5055340;28;7227;-62
2022/08/17 02:56:41;;;;;;;;;;;;;;;29.45;37.39;93817.94;5055683;28;7522;-62
2022/08/17 02:59:07;;;;;;;;;;;;;;;29.46;36.90;93816.66;5038062;28;9192;-62
2022/08/17 03:01:33;;;;;;;;;;;;;;;29.46;37.46;93824.22;5044381;28;9368;-62
2022/08/17 03:03:59;;;;;;;;;;;;;;;29.45;37.28;93817.94;5045539;28;9051;-62
2022/08/17 03:06:27;;;;;;;;;;;;;;;29.44;36.88;93810.19;5054289;28;6855;-62
2022/08/17 03:08:53;;;;;;;;;;;;;;;29.47;36.76;93809.09;5045786;28;9086;-62
2022/08/17 03:11:19;;;;;;;;;;;;;;;29.46;36.90;93810.38;5050993;28;9018;-62
2022/08/17 03:13:45;;;;;;;;;;;;;;;29.41;37.47;93814.03;5036551;28;9350;-62
2022/08/17 03:16:13;;;;;;;;;;;;;;;29.39;36.55;93806.28;5041352;28;9049;-62
2022/08/17 03:18:40;;;;;;;;;;;;;;;29.37;37.10;93811.63;5038352;28;7247;-62
2022/08/17 03:21:10;;;;;;;;;;;;;;;29.34;37.45;93817.53;5044073;28;9495;-62
2022/08/17 03:23:42;;;;;;;;;;;;;;;29.31;37.05;93816.59;5040364;28;9162;-62
2022/08/17 03:26:19;;;;;;;;;;;;;;;29.32;37.61;93818.06;5044007;28;7266;-62
2022/08/17 03:29:05;;;;;;;;;;;;;;;29.30;37.69;93811.59;5044774;28;9075;-62
2022/08/17 03:31:34;;;;;;;;;;;;;;;29.27;37.78;93810.69;5049671;28;6992;-62
2022/08/17 03:34:02;;;;;;;;;;;;;;;29.27;37.56;93815.47;5041651;28;7032;-62
2022/08/17 03:36:30;;;;;;;;;;;;;;;29.25;37.07;93812.53;5043446;28;7356;-62
2022/08/17 03:38:56;;;;;;;;;;;;;;;29.23;37.64;93810.28;5047511;28;7072;-62
2022/08/17 03:41:22;;;;;;;;;;;;;;;29.19;37.73;93809.19;5056659;28;7276;-62
2022/08/17 03:43:49;;;;;;;;;;;;;;;29.21;37.32;93812.16;5038094;28;8808;-62
2022/08/17 03:57:28;;;;;;;;;;;;;;;29.15;37.73;93826.13;5055543;28;7009;-63
2022/08/17 03:59:55;;;;;;;;;;;;;;;29.17;37.49;93836.69;5037626;28;9034;-62
2022/08/17 04:02:29;;;;;;;;;;;;;;;29.16;37.61;93826.84;5050625;28;9068;-63
2022/08/17 04:04:56;;;;;;;;;;;;;;;29.17;37.69;93833.91;5037418;28;7033;-62
2022/08/17 04:07:31;;;;;;;;;;;;;;;29.17;37.95;93822.84;5035298;28;7240;-63
2022/08/17 04:09:58;;;;;;;;;;;;;;;29.15;37.94;93831.66;5038876;28;7033;-62
2022/08/17 04:12:25;;;;;;;;;;;;;;;29.15;37.68;93826.13;5038216;28;8848;-63
2022/08/17 04:14:52;;;;;;;;;;;;;;;29.13;38.28;93827.94;5036753;28;9325;-63
2022/08/17 04:17:19;;;;;;;;;;;;;;;29.13;37.99;93822.41;5038281;28;9118;-62
2022/08/17 04:19:45;;;;;;;;;;;;;;;29.14;37.94;93810.06;5039004;28;7176;-62
2022/08/17 04:22:13;;;;;;;;;;;;;;;29.12;37.74;93799.53;5035586;28;9157;-63
2022/08/17 04:24:42;;;;;;;;;;;;;;;29.13;37.89;93808.56;5039796;28;7266;-62
2022/08/17 04:27:08;;;;;;;;;;;;;;;29.12;37.60;93812.63;5036029;28;7402;-63
2022/08/17 04:29:34;;;;;;;;;;;;;;;29.12;38.00;93809.88;5046238;28;6984;-63
2022/08/17 04:32:24;;;;;;;;;;;;;;;29.10;37.85;93815.97;5040509;28;8050;-62
2022/08/17 04:35:00;;;;;;;;;;;;;;;29.13;37.53;93822.41;5058619;28;8747;-62
2022/08/17 04:37:31;;;;;;;;;;;;;;;29.12;38.35;93837.56;5035543;28;9252;-63
2022/08/17 04:43:23;;;;;;;;;;;;;;;29.10;37.61;93858.22;4968615;28;9103;-63
2022/08/17 04:45:57;;;;;;;;;;;;;;;29.09;38.44;93862.28;4951244;28;7495;-62
2022/08/17 04:48:31;;;;;;;;;;;;;;;29.10;37.86;93866.53;4952805;28;8445;-62
2022/08/17 04:51:37;;;;;;;;;;;;;;;29.09;38.08;93873.38;4949348;28;7270;-63
2022/08/17 04:54:21;;;;;;;;;;;;;;;29.12;38.35;93892.94;4912005;29;9329;-63
2022/08/17 04:57:15;;;;;;;;;;;;;;;29.11;37.38;93886.66;4913910;29;9211;-62
2022/08/17 05:00:10;;;;;;;;;;;;;;;29.09;38.32;93884.44;4913823;29;9127;-62
2022/08/17 05:02:49;;;;;;;;;;;;;;;29.09;37.81;93883.69;4882484;29;7032;-63
2022/08/17 05:05:25;;;;;;;;;;;;;;;29.11;37.80;93875.56;4883168;29;7229;-62
2022/08/17 05:08:22;;;;;;;;;;;;;;;29.13;38.09;93875.03;4880185;29;8975;-63
2022/08/17 05:10:49;;;;;;;;;;;;;;;29.12;38.21;93876.31;4877969;29;7177;-62
2022/08/17 05:13:42;;;;;;;;;;;;;;;29.12;37.93;93868.00;4879063;29;7682;-63
2022/08/17 05:16:12;;;;;;;;;;;;;;;29.10;38.08;93869.28;4867112;29;8324;-62
2022/08/17 05:18:45;;;;;;;;;;;;;;;29.09;38.21;93851.22;4879006;29;8476;-62
2022/08/17 05:21:32;;;;;;;;;;;;;;;29.11;37.65;93850.66;4912159;29;7537;-62
2022/08/17 05:24:00;;;;;;;;;;;;;;;29.10;38.15;93849.19;4920012;29;7205;-63
2022/08/17 05:27:03;;;;;;;;;;;;;;;29.12;37.78;93843.84;4913000;29;9409;-63
2022/08/17 05:29:40;;;;;;;;;;;;;;;29.13;38.02;93858.41;4925829;28;7282;-62
2022/08/17 05:32:25;;;;;;;;;;;;;;;29.12;38.14;93860.47;4920074;28;9087;-63
2022/08/17 05:35:01;;;;;;;;;;;;;;;29.12;38.37;93854.16;4918261;28;7175;-62
2022/08/17 05:37:27;;;;;;;;;;;;;;;29.10;38.19;93849.91;4940969;28;8841;-62
2022/08/17 05:39:53;;;;;;;;;;;;;;;29.11;37.70;93853.44;4961488;28;7301;-62
2022/08/17 05:42:22;;;;;;;;;;;;;;;29.06;38.31;93852.28;4960396;28;8996;-62
2022/08/17 05:44:48;;;;;;;;;;;;;;;29.04;37.79;93852.09;4978621;28;7902;-62
2022/08/17 05:47:16;;;;;;;;;;;;;;;29.06;37.86;93851.53;4963912;28;7055;-62
2022/08/17 05:49:45;;;;;;;;;;;;;;;29.06;38.03;93859.84;4961435;28;9044;-62
2022/08/17 05:52:13;;;;;;;;;;;;;;;29.07;38.18;93848.25;4960787;28;7231;-62
2022/08/17 05:55:01;;;;;;;;;;;;;;;29.07;38.05;93851.03;4976533;28;7417;-63
2022/08/17 05:57:44;;;;;;;;;;;;;;;29.10;37.64;93854.72;4977559;28;9309;-63
2022/08/17 06:00:21;;;;;;;;;;;;;;;29.08;38.25;93846.94;4965634;28;7244;-62
2022/08/17 06:02:59;;;;;;;;;;;;;;;29.04;38.32;93848.59;4976502;28;7117;-62
2022/08/17 06:05:49;;;;;;;;;;;;;;;29.02;37.96;93851.91;5035787;28;7017;-62
2022/08/17 06:08:39;;;;;;;;;;;;;;;29.05;38.04;93848.06;5057117;28;7114;-62
2022/08/17 06:11:50;;;;;;;;;;;;;;;29.06;38.31;93852.28;5042987;28;7277;-62
2022/08/17 06:14:53;;;;;;;;;;;;;;;29.08;38.18;93866.34;5039722;28;9266;-62
2022/08/17 06:17:24;;;;;;;;;;;;;;;29.07;37.95;93873.16;4969965;28;6986;-62
2022/08/17 06:20:12;;;;;;;;;;;;;;;29.08;38.22;93860.78;4967155;28;7172;-62
2022/08/17 06:26:28;;;;;;;;;;;;;;;29.08;38.71;93846.19;4895156;29;7266;-62
2022/08/17 06:29:36;;;;;;;;;;;;;;;29.09;37.97;93833.84;4894055;29;9813;-63
2022/08/17 06:32:10;;;;;;;;;;;;;;;29.08;38.45;93821.28;4855904;29;9436;-63
2022/08/17 06:34:46;;;;;;;;;;;;;;;29.06;38.33;93819.06;4850928;29;7121;-62
2022/08/17 06:37:49;;;;;;;;;;;;;;;29.03;38.58;93814.63;4838485;29;7257;-62
2022/08/17 06:40:33;;;;;;;;;;;;;;;29.00;40.10;93826.06;4850037;29;7544;-62
2022/08/17 06:43:26;;;;;;;;;;;;;;;28.98;39.58;93815.53;4836947;29;7242;-62
2022/08/17 06:46:09;;;;;;;;;;;;;;;28.97;39.01;93811.25;4852230;29;7210;-61
2022/08/17 06:49:20;;;;;;;;;;;;;;;28.97;39.38;93819.56;4854484;29;9067;-61
2022/08/17 06:52:13;;;;;;;;;;;;;;;28.95;40.64;93827.69;4873535;29;9086;-61
2022/08/17 06:54:58;;;;;;;;;;;;;;;28.97;39.88;93827.88;4893741;29;7266;-61
2022/08/17 06:57:29;;;;;;;;;;;;;;;28.99;39.60;93843.97;4889947;29;8285;-62
2022/08/17 07:00:12;;;;;;;;;;;;;;;28.97;40.17;93852.06;4893470;29;8481;-62
2022/08/17 07:02:56;;;;;;;;;;;;;;;28.96;39.69;93845.03;4911128;28;7442;-62
2022/08/17 07:05:36;;;;;;;;;;;;;;;28.93;39.92;93830.25;4931191;28;7214;-62
2022/08/17 07:08:18;;;;;;;;;;;;;;;28.91;40.22;93841.16;4971539;28;7543;-62
2022/08/17 07:11:16;;;;;;;;;;;;;;;28.92;39.72;93831.56;5041584;28;7004;-62
2022/08/17 07:14:29;;;;;;;;;;;;;;;28.90;40.39;93831.38;4985235;28;7221;-62
2022/08/17 07:17:00;;;;;;;;;;;;;;;28.91;39.58;93829.31;4984689;28;8372;-61
2022/08/17 07:19:31;;;;;;;;;;;;;;;28.92;39.57;93825.28;4993030;28;7001;-62
2022/08/17 07:25:30;;;;;;;;;;;;;;;28.94;39.37;93811.63;4994446;28;7007;-63
2022/08/17 07:28:06;;;;;;;;;;;;;;;28.94;39.96;93809.59;4983324;28;9204;-62
2022/08/17 07:30:55;;;;;;;;;;;;;;;28.93;40.15;93816.41;4999872;28;7008;-62
2022/08/17 07:33:59;;;;;;;;;;;;;;;28.94;39.60;93795.75;4976801;28;7270;-62
2022/08/17 07:36:37;;;;;;;;;;;;;;;28.98;39.05;93795.41;4979252;28;7119;-62
2022/08/17 07:39:04;;;;;;;;;;;;;;;28.99;38.96;93802.44;4982596;28;7254;-62
2022/08/17 07:41:43;;;;;;;;;;;;;;;29.01;39.59;93803.34;4998680;28;7236;-62
2022/08/17 07:44:40;;;;;;;;;;;;;;;29.03;38.74;93811.88;4981408;28;8882;-62
2022/08/17 07:50:34;;;;;;;;;;;;;;;29.00;39.27;93798.34;5026320;28;9227;-62
2022/08/17 07:53:24;;;;;;;;;;;;;;;28.98;38.55;93785.06;5039441;28;7224;-62
2022/08/17 07:55:57;;;;;;;;;;;;;;;28.99;38.73;93794.84;5038735;28;9326;-62
2022/08/17 07:58:23;;;;;;;;;;;;;;;28.99;38.90;93805.91;5051279;28;7040;-62
2022/08/17 08:01:09;;;;;;;;;;;;;;;29.02;38.66;93802.06;5037306;28;7095;-62
2022/08/17 08:03:44;;;;;;;;;;;;;;;29.02;38.60;93798.56;5037746;28;7626;-62
2022/08/17 08:06:20;;;;;;;;;;;;;;;29.03;38.78;93800.78;5038025;28;7290;-62
2022/08/17 08:08:54;;;;;;;;;;;;;;;29.02;38.94;93804.84;5038317;28;9550;-62
2022/08/17 08:11:38;;;;;;;;;;;;;;;29.02;38.12;93802.06;5036022;28;9109;-62
2022/08/17 08:14:28;;;;;;;;;;;;;;;29.03;38.33;93806.31;5054184;28;8306;-62
2022/08/17 08:17:10;;;;;;;;;;;;;;;29.08;38.35;93816.47;5044429;28;7226;-62
2022/08/17 08:19:46;;;;;;;;;;;;;;;29.08;37.77;93821.28;5040770;28;7592;-62
2022/08/17 08:22:28;;;;;;;;;;;;;;;29.09;38.33;93828.31;5041557;28;7630;-62
2022/08/17 08:25:16;;;;;;;;;;;;;;;29.05;38.59;93820.38;5038873;28;7306;-62
2022/08/17 08:28:13;;;;;;;;;;;;;;;29.08;37.69;93816.47;5054113;28;7033;-61
2022/08/17 08:30:54;;;;;;;;;;;;;;;29.06;37.30;93821.84;5053658;28;7211;-61
2022/08/17 08:33:39;;;;;;;;;;;;;;;29.08;36.84;93827.56;5045227;28;6967;-61
2022/08/17 08:36:36;;;;;;;;;;;;;;;29.07;37.17;93825.34;5046157;28;9216;-61
2022/08/17 08:39:40;;;;;;;;;;;;;;;29.06;36.69;93838.44;5042352;28;9058;-61
2022/08/17 08:42:26;;;;;;;;;;;;;;;29.06;36.87;93830.13;5034515;28;7008;-62
2022/08/17 08:45:17;;;;;;;;;;;;;;;29.08;36.74;93830.34;5039655;28;7182;-62
2022/08/17 08:48:29;;;;;;;;;;;;;;;29.09;37.11;93851.22;5037628;28;7032;-62
2022/08/17 08:51:27;;;;;;;;;;;;;;;29.07;36.59;93845.47;5039094;28;8106;-62
2022/08/17 08:54:48;;;;;;;;;;;;;;;29.08;36.83;93846.94;5061350;28;7223;-62
2022/08/17 08:57:35;;;;;;;;;;;;;;;29.07;37.36;93844.72;4969894;28;8908;-63
2022/08/17 09:00:21;;;;;;;;;;;;;;;29.05;36.87;93850.06;4970737;28;7223;-63
2022/08/17 09:03:15;;;;;;;;;;;;;;;29.04;37.03;93860.41;4967650;28;8456;-63
2022/08/17 09:06:02;;;;;;;;;;;;;;;29.03;36.83;93858.94;4967732;28;7266;-62
2022/08/17 09:08:49;;;;;;;;;;;;;;;29.05;37.41;93866.69;4984404;28;6864;-62
2022/08/17 09:11:18;;;;;;;;;;;;;;;29.04;37.21;93856.88;4968395;28;9242;-62
2022/08/17 09:14:14;;;;;;;;;;;;;;;29.03;37.39;93847.88;4970373;28;7019;-62
2022/08/17 09:16:56;;;;;;;;;;;;;;;29.01;37.77;93839.34;4969505;28;7542;-62
2022/08/17 09:19:47;;;;;;;;;;;;;;;28.98;37.24;93845.25;4966805;28;7075;-62
2022/08/17 09:22:37;;;;;;;;;;;;;;;28.97;36.96;93855.56;4964382;28;6998;-61
2022/08/17 09:25:27;;;;;;;;;;;;;;;28.98;37.10;93856.31;4969472;28;8825;-61
2022/08/17 09:28:24;;;;;;;;;;;;;;;28.99;36.65;93858.53;4973641;28;7031;-61
2022/08/17 09:31:01;;;;;;;;;;;;;;;29.00;37.20;93857.25;4998262;28;9090;-61
2022/08/17 09:33:34;;;;;;;;;;;;;;;29.00;37.14;93857.25;5042945;28;7049;-61
2022/08/17 09:36:28;;;;;;;;;;;;;;;29.02;36.41;93860.22;5058881;28;8663;-61
2022/08/17 09:39:19;;;;;;;;;;;;;;;29.02;36.86;93857.44;5044971;28;7444;-62
2022/08/17 09:42:09;;;;;;;;;;;;;;;29.02;36.94;93857.44;5050080;28;9181;-62
2022/08/17 09:45:00;;;;;;;;;;;;;;;29.02;36.61;93857.44;5043113;28;9047;-62
2022/08/17 09:47:45;;;;;;;;;;;;;;;29.03;36.33;93858.94;5043259;28;7574;-62
2022/08/17 09:50:39;;;;;;;;;;;;;;;29.04;36.44;93857.63;5062351;28;7963;-61
2022/08/17 09:53:06;;;;;;;;;;;;;;;29.05;37.00;93855.63;5044972;28;7213;-62
2022/08/17 09:56:04;;;;;;;;;;;;;;;29.08;36.84;93860.03;5064674;28;7781;-62
2022/08/17 09:59:16;;;;;;;;;;;;;;;29.08;36.47;93871.88;5060067;28;7999;-62
2022/08/17 10:05:24;;;;;;;;;;;;;;;29.09;36.68;93889.22;4983807;28;9428;-62
2022/08/17 10:08:11;;;;;;;;;;;;;;;29.12;37.17;93887.41;4983416;28;7086;-61
2022/08/17 10:10:51;;;;;;;;;;;;;;;29.07;36.58;93878.72;4971859;28;8440;-61
2022/08/17 10:13:47;;;;;;;;;;;;;;;29.12;36.26;93877.06;4969481;28;7277;-61
2022/08/17 10:16:48;;;;;;;;;;;;;;;29.15;37.24;93880.75;4968987;28;7032;-61
2022/08/17 10:20:05;;;;;;;;;;;;;;;29.16;36.48;93877.47;4984368;28;9669;-61
2022/08/17 10:28:43;;;;;;;;;;;;;;;29.20;37.03;93871.59;4925155;28;7276;-61
2022/08/17 10:31:26;;;;;;;;;;;;;;;29.21;36.48;93878.63;4907536;29;7214;-61
2022/08/17 10:34:12;;;;;;;;;;;;;;;29.22;36.62;93883.59;4924905;28;7256;-61
2022/08/17 10:36:59;;;;;;;;;;;;;;;29.21;37.12;93895.25;4909814;29;9085;-61
2022/08/17 10:39:50;;;;;;;;;;;;;;;29.24;36.71;93888.59;4923592;29;9030;-61
2022/08/17 10:42:45;;;;;;;;;;;;;;;29.26;36.81;93886.00;4941614;28;7253;-61
2022/08/17 10:45:28;;;;;;;;;;;;;;;29.27;36.82;93898.59;4983093;28;7266;-61
2022/08/17 10:48:26;;;;;;;;;;;;;;;29.28;36.64;93895.25;4981025;28;7297;-61
2022/08/17 10:50:57;;;;;;;;;;;;;;;29.27;36.92;93881.97;4964999;28;7816;-61
2022/08/17 10:53:48;;;;;;;;;;;;;;;29.26;37.35;93880.47;4963207;28;7083;-61
2022/08/17 10:56:22;;;;;;;;;;;;;;;29.25;37.21;93884.53;4948343;28;7292;-62
2022/08/17 10:58:57;;;;;;;;;;;;;;;29.25;37.21;93882.53;4993351;28;9045;-62
2022/08/17 11:01:32;;;;;;;;;;;;;;;29.29;37.86;93888.44;4991865;28;8777;-62
2022/08/17 11:04:17;;;;;;;;;;;;;;;29.31;37.16;93885.88;4997871;28;9407;-62
2022/08/17 11:07:11;;;;;;;;;;;;;;;29.33;37.64;93886.06;5005832;28;7134;-62
2022/08/17 11:09:59;;;;;;;;;;;;;;;29.37;37.36;93880.91;4987000;28;8690;-62
2022/08/17 11:13:13;;;;;;;;;;;;;;;29.39;37.53;93866.47;4987678;28;9039;-61
2022/08/17 11:16:10;;;;;;;;;;;;;;;29.40;37.11;93871.50;4989768;28;9055;-61
2022/08/17 11:19:09;;;;;;;;;;;;;;;29.41;37.23;93870.19;4982016;28;9205;-62
2022/08/17 11:22:21;;;;;;;;;;;;;;;29.42;36.91;93866.16;4991819;28;9207;-62
2022/08/17 11:24:55;;;;;;;;;;;;;;;29.44;37.15;93865.59;4949979;28;7159;-62
2022/08/17 11:27:34;;;;;;;;;;;;;;;29.44;37.72;93863.56;4951081;28;7254;-62
2022/08/17 11:30:06;;;;;;;;;;;;;;;29.44;37.54;93851.72;4948032;28;7637;-62
2022/08/17 11:32:49;;;;;;;;;;;;;;;29.41;37.09;93850.06;4956657;28;9107;-62
2022/08/17 11:35:45;;;;;;;;;;;;;;;29.43;37.20;93850.25;4987434;28;7063;-62
2022/08/17 11:38:44;;;;;;;;;;;;;;;29.44;37.47;93841.41;4985669;28;7853;-62
2022/08/17 11:41:55;;;;;;;;;;;;;;;29.47;38.19;93828.47;4983384;28;8145;-62
2022/08/17 11:44:37;;;;;;;;;;;;;;;29.49;37.96;93832.16;4901285;29;7129;-62
2022/08/17 11:53:39;;;;;;;;;;;;;;;29.51;37.89;93834.41;4920058;29;7303;-61
2022/08/17 11:56:10;;;;;;;;;;;;;;;29.53;37.90;93837.34;4924425;29;7272;-62
2022/08/17 11:58:46;;;;;;;;;;;;;;;29.53;38.21;93835.34;4924972;29;9030;-62
2022/08/17 12:01:50;;;;;;;;;;;;;;;29.55;38.01;93829.22;4922967;28;9219;-62
2022/08/17 12:04:57;;;;;;;;;;;;;;;29.51;39.09;93834.41;4944852;28;9707;-62
2022/08/17 12:07:28;;;;;;;;;;;;;;;29.51;39.46;93829.59;4942296;28;8801;-62
2022/08/17 12:09:56;;;;;;;;;;;;;;;29.52;38.08;93828.28;4947040;28;9231;-62
2022/08/17 12:12:33;;;;;;;;;;;;;;;29.56;38.66;93825.16;4954925;28;9113;-61
2022/08/17 12:15:06;;;;;;;;;;;;;;;29.55;38.52;93818.91;4961198;28;7133;-62
2022/08/17 12:17:52;;;;;;;;;;;;;;;29.58;37.70;93828.84;4964453;28;7321;-62
2022/08/17 12:20:26;;;;;;;;;;;;;;;29.60;38.76;93822.78;4966324;28;7916;-61
2022/08/17 12:23:30;;;;;;;;;;;;;;;29.59;38.08;93819.28;5045089;28;7111;-62
2022/08/17 12:26:22;;;;;;;;;;;;;;;29.59;37.59;93815.75;5045196;28;7174;-61
2022/08/17 12:28:57;;;;;;;;;;;;;;;29.58;38.12;93823.31;5046472;28;8763;-61
2022/08/17 12:31:34;;;;;;;;;;;;;;;29.58;38.11;93828.13;5059644;28;7357;-61
2022/08/17 12:34:18;;;;;;;;;;;;;;;29.60;37.98;93809.66;5046197;28;9318;-61
2022/08/17 12:37:21;;;;;;;;;;;;;;;29.64;38.29;93809.31;5064234;28;9567;-61
2022/08/17 12:40:30;;;;;;;;;;;;;;;29.66;38.74;93812.25;5044939;28;8795;-62
2022/08/17 12:43:20;;;;;;;;;;;;;;;29.63;38.47;93808.56;5040165;28;7272;-62
2022/08/17 12:46:00;;;;;;;;;;;;;;;29.65;38.81;93805.22;5048501;28;7063;-62
2022/08/17 12:48:33;;;;;;;;;;;;;;;29.67;38.05;93797.84;5043706;28;8433;-62
2022/08/17 12:51:04;;;;;;;;;;;;;;;29.70;38.65;93796.00;5061369;28;7482;-62
2022/08/17 12:53:34;;;;;;;;;;;;;;;29.70;38.23;93787.69;5059378;28;7045;-62
2022/08/17 12:56:12;;;;;;;;;;;;;;;29.70;37.91;93784.91;5039541;28;7427;-62
2022/08/17 12:58:52;;;;;;;;;;;;;;;29.70;38.11;93790.47;5057054;28;8845;-62
2022/08/17 13:01:23;;;;;;;;;;;;;;;29.70;37.81;93787.69;5035440;28;7216;-62
2022/08/17 13:03:56;;;;;;;;;;;;;;;29.66;38.20;93779.75;5040937;28;8088;-61
2022/08/17 13:06:32;;;;;;;;;;;;;;;29.67;37.71;93770.13;5037689;28;7470;-62
2022/08/17 13:09:16;;;;;;;;;;;;;;;29.68;37.79;93765.31;5055340;28;7236;-61
2022/08/17 13:11:48;;;;;;;;;;;;;;;29.70;38.00;93754.44;5038373;28;9209;-62
2022/08/17 13:14:22;;;;;;;;;;;;;;;29.73;37.71;93758.88;5040522;28;7338;-62
2022/08/17 13:16:59;;;;;;;;;;;;;;;29.73;37.98;93756.09;5059561;28;8819;-62
2022/08/17 13:19:29;;;;;;;;;;;;;;;29.72;38.41;93749.81;5042991;28;9183;-62
2022/08/17 13:22:10;;;;;;;;;;;;;;;29.71;38.10;93747.59;5043754;28;8773;-62
2022/08/17 13:24:56;;;;;;;;;;;;;;;29.73;38.57;93747.78;5030091;28;8307;-62
2022/08/17 13:27:28;;;;;;;;;;;;;;;29.73;38.21;93739.47;5040766;28;7231;-62
2022/08/17 13:30:10;;;;;;;;;;;;;;;29.71;38.88;93736.50;5042540;28;7156;-62
2022/08/17 13:32:47;;;;;;;;;;;;;;;29.69;38.17;93730.75;5049545;28;9066;-62
2022/08/17 13:35:52;;;;;;;;;;;;;;;29.68;38.01;93730.03;5061833;28;7246;-62
2022/08/17 13:38:48;;;;;;;;;;;;;;;29.69;37.60;93730.75;5040614;28;9125;-62
2022/08/17 13:41:43;;;;;;;;;;;;;;;29.66;36.86;93721.53;5049551;28;7926;-62
2022/08/17 13:44:38;;;;;;;;;;;;;;;29.65;36.66;93719.31;5044015;28;9085;-61
2022/08/17 13:47:18;;;;;;;;;;;;;;;29.62;37.55;93707.28;5059946;28;7888;-61
2022/08/17 13:49:45;;;;;;;;;;;;;;;29.59;38.09;93707.66;5053636;28;9413;-61
2022/08/17 13:52:39;;;;;;;;;;;;;;;29.58;37.85;93712.47;5042911;28;9100;-61
2022/08/17 13:55:21;;;;;;;;;;;;;;;29.54;38.09;93719.66;5041517;28;7217;-62
2022/08/17 13:57:59;;;;;;;;;;;;;;;29.51;38.99;93701.38;5043920;28;7541;-61
2022/08/17 14:00:31;;;;;;;;;;;;;;;29.52;38.52;93711.16;5049315;28;8800;-61
2022/08/17 14:03:10;;;;;;;;;;;;;;;29.51;38.45;93704.16;5043440;28;7127;-61
2022/08/17 14:05:38;;;;;;;;;;;;;;;29.52;38.94;93691.78;5044565;28;8049;-61
2022/08/17 14:08:04;;;;;;;;;;;;;;;29.55;38.22;93707.31;5049922;28;7242;-61
2022/08/17 14:10:30;;;;;;;;;;;;;;;29.61;37.89;93705.09;5058723;28;8955;-61
2022/08/17 14:13:00;;;;;;;;;;;;;;;29.63;37.99;93692.16;5041174;28;7028;-61
2022/08/17 14:15:34;;;;;;;;;;;;;;;29.66;38.13;93679.97;5048359;28;7355;-61
2022/08/17 14:18:00;;;;;;;;;;;;;;;29.66;38.50;93679.22;5040175;28;7254;-62
2022/08/17 14:20:40;;;;;;;;;;;;;;;29.61;37.86;93678.13;5042178;28;9336;-61
2022/08/17 14:23:13;;;;;;;;;;;;;;;29.58;38.56;93672.94;5040483;28;7035;-61
2022/08/17 14:25:40;;;;;;;;;;;;;;;29.56;37.94;93670.72;5040648;28;9495;-61
2022/08/17 14:28:41;;;;;;;;;;;;;;;29.53;38.35;93680.16;5039404;28;7589;-61
2022/08/17 14:31:11;;;;;;;;;;;;;;;29.52;37.95;93670.34;5054701;28;7264;-61
2022/08/17 14:33:43;;;;;;;;;;;;;;;29.56;37.98;93669.97;5037230;28;9707;-61
2022/08/17 14:36:09;;;;;;;;;;;;;;;29.60;38.34;93671.06;5039288;28;7176;-61
2022/08/17 14:38:40;;;;;;;;;;;;;;;29.62;38.20;93667.78;5058931;28;7304;-61
2022/08/17 14:41:07;;;;;;;;;;;;;;;29.65;37.68;93661.09;5036870;28;7091;-61
2022/08/17 14:43:34;;;;;;;;;;;;;;;29.66;37.73;93670.91;5036181;28;9321;-61
2022/08/17 14:46:00;;;;;;;;;;;;;;;29.69;38.00;93678.09;5052050;28;8635;-62